Time,TemperatureF,DewpointF,PressureIn,WindDirection,WindDirectionDegrees,WindSpeedMPH,WindSpeedGustMPH,Humidity,HourlyPrecipIn,Conditions,Clouds,dailyrainin,SolarRadiationWatts/m^2,SoftwareType,DateUTC
2013-09-16 00:05:00,74.0,61.0,-100.00,East,85,5.0,8.0,63,0.00,,,0.00,0.000000,,2013-09-16 04:05:00,
2013-09-16 00:14:00,74.0,61.0,-100.00,East,85,5.0,8.0,63,0.00,,,0.00,0.000000,,2013-09-16 04:14:00,
2013-09-16 00:24:00,74.0,61.0,-100.00,East,85,5.0,8.0,63,0.00,,,0.00,0.000000,,2013-09-16 04:24:00,
2013-09-16 00:54:00,75.0,62.0,-100.00,East,83,5.0,7.0,64,0.00,,,0.00,0.000000,,2013-09-16 04:54:00,
2013-09-16 01:04:00,75.0,62.0,-100.00,East,83,5.0,7.0,64,0.00,,,0.00,0.000000,,2013-09-16 05:04:00,
2013-09-16 01:13:00,75.0,62.0,-100.00,East,83,5.0,7.0,64,0.00,,,0.00,0.000000,,2013-09-16 05:13:00,
2013-09-16 01:22:00,75.0,62.0,-100.00,East,83,5.0,7.0,64,0.00,,,0.00,0.000000,,2013-09-16 05:22:00,
2013-09-16 01:53:00,75.0,62.0,-100.00,East,86,4.0,6.0,64,0.00,,,0.00,0.000000,,2013-09-16 05:53:00,
2013-09-16 02:03:00,75.0,62.0,-100.00,East,86,4.0,6.0,64,0.00,,,0.00,0.000000,,2013-09-16 06:03:00,
2013-09-16 02:12:00,75.0,62.0,-100.00,East,86,4.0,6.0,64,0.00,,,0.00,0.000000,,2013-09-16 06:12:00,
2013-09-16 02:22:00,75.0,62.0,-100.00,East,86,4.0,6.0,64,0.00,,,0.00,0.000000,,2013-09-16 06:22:00,
2013-09-16 03:22:00,71.0,59.0,-100.00,West,271,0.0,5.0,67,0.00,,,0.00,0.000000,,2013-09-16 07:22:00,
2013-09-16 03:52:00,70.0,59.0,-100.00,WSW,258,0.0,4.0,69,0.00,,,0.00,0.000000,,2013-09-16 07:52:00,
2013-09-16 04:02:00,70.0,59.0,-100.00,WSW,258,0.0,4.0,69,0.00,,,0.00,0.000000,,2013-09-16 08:02:00,
2013-09-16 04:22:00,70.0,59.0,-100.00,WSW,258,0.0,4.0,69,0.00,,,0.00,0.000000,,2013-09-16 08:22:00,
2013-09-16 05:22:00,70.0,59.0,-100.00,SW,229,1.0,2.0,69,0.00,,,0.00,0.000000,,2013-09-16 09:22:00,
2013-09-16 06:23:00,69.0,59.0,-100.00,SW,234,0.0,2.0,70,0.00,,,0.00,0.000000,,2013-09-16 10:23:00,
2013-09-16 07:22:00,69.0,59.0,-100.00,WSW,237,2.0,2.0,70,0.00,,,0.00,0.000000,,2013-09-16 11:22:00,
2013-09-16 07:52:00,71.0,61.0,-100.00,West,265,0.0,2.0,70,0.00,,,0.00,21.000000,,2013-09-16 11:52:00,
2013-09-16 08:01:00,71.0,61.0,-100.00,West,265,0.0,2.0,70,0.00,,,0.00,21.000000,,2013-09-16 12:01:00,
2013-09-16 08:12:00,71.0,61.0,-100.00,West,265,0.0,2.0,70,0.00,,,0.00,21.000000,,2013-09-16 12:12:00,
2013-09-16 08:52:00,76.0,65.0,-100.00,West,269,0.0,2.0,69,0.00,,,0.00,107.000000,,2013-09-16 12:52:00,
2013-09-16 09:02:00,76.0,65.0,-100.00,West,269,0.0,2.0,69,0.00,,,0.00,107.000000,,2013-09-16 13:02:00,
2013-09-16 09:11:00,76.0,65.0,-100.00,West,269,0.0,2.0,69,0.00,,,0.00,107.000000,,2013-09-16 13:11:00,
2013-09-16 09:22:00,76.0,65.0,-100.00,West,269,0.0,2.0,69,0.00,,,0.00,107.000000,,2013-09-16 13:22:00,
2013-09-16 09:53:00,79.0,65.0,-100.00,ESE,121,3.0,6.0,63,0.00,,,0.00,139.000000,,2013-09-16 13:53:00,
2013-09-16 10:02:00,79.0,65.0,-100.00,ESE,121,3.0,6.0,63,0.00,,,0.00,139.000000,,2013-09-16 14:02:00,
2013-09-16 10:11:00,79.0,65.0,-100.00,ESE,121,3.0,6.0,63,0.00,,,0.00,139.000000,,2013-09-16 14:11:00,
2013-09-16 10:22:00,79.0,65.0,-100.00,ESE,121,3.0,6.0,63,0.00,,,0.00,139.000000,,2013-09-16 14:22:00,
2013-09-16 10:52:00,82.0,66.0,-100.00,SE,128,4.0,8.0,59,0.00,,,0.00,463.000000,,2013-09-16 14:52:00,
2013-09-16 11:02:00,82.0,66.0,-100.00,SE,128,4.0,8.0,59,0.00,,,0.00,463.000000,,2013-09-16 15:02:00,
2013-09-16 11:12:00,82.0,66.0,-100.00,SE,128,4.0,8.0,59,0.00,,,0.00,463.000000,,2013-09-16 15:12:00,
2013-09-16 11:22:00,82.0,66.0,-100.00,SE,128,4.0,8.0,59,0.00,,,0.00,463.000000,,2013-09-16 15:22:00,
2013-09-16 11:53:00,82.0,67.0,-100.00,SE,129,5.0,9.0,60,0.00,,,0.00,475.000000,,2013-09-16 15:53:00,
2013-09-16 12:03:00,82.0,67.0,-100.00,SE,129,5.0,9.0,60,0.00,,,0.00,475.000000,,2013-09-16 16:03:00,
2013-09-16 12:12:00,82.0,67.0,-100.00,SE,129,5.0,9.0,60,0.00,,,0.00,475.000000,,2013-09-16 16:12:00,
2013-09-16 12:23:00,82.0,67.0,-100.00,SE,129,5.0,9.0,60,0.00,,,0.00,475.000000,,2013-09-16 16:23:00,
2013-09-16 12:52:00,81.0,67.0,-100.00,ESE,116,4.0,9.0,62,0.00,,,0.00,370.000000,,2013-09-16 16:52:00,
2013-09-16 13:03:00,81.0,67.0,-100.00,ESE,116,4.0,9.0,62,0.00,,,0.00,370.000000,,2013-09-16 17:03:00,
2013-09-16 13:12:00,81.0,67.0,-100.00,ESE,116,4.0,9.0,62,0.00,,,0.00,370.000000,,2013-09-16 17:12:00,
2013-09-16 13:23:00,81.0,67.0,-100.00,ESE,116,4.0,9.0,62,0.00,,,0.00,370.000000,,2013-09-16 17:23:00,
2013-09-16 13:53:00,85.0,68.0,-100.00,SSE,148,7.0,13.0,57,0.00,,,0.00,887.000000,,2013-09-16 17:53:00,
2013-09-16 14:02:00,85.0,68.0,-100.00,SSE,148,7.0,13.0,57,0.00,,,0.00,887.000000,,2013-09-16 18:02:00,
2013-09-16 14:12:00,85.0,68.0,-100.00,SSE,148,7.0,13.0,57,0.00,,,0.00,887.000000,,2013-09-16 18:12:00,
2013-09-16 14:22:00,85.0,68.0,-100.00,SSE,148,7.0,13.0,57,0.00,,,0.00,887.000000,,2013-09-16 18:22:00,
2013-09-16 14:52:00,78.0,64.0,-100.00,WSW,251,3.0,13.0,63,0.41,,,-99.99,323.000000,,2013-09-16 18:52:00,
2013-09-16 15:01:00,78.0,64.0,-100.00,WSW,251,3.0,13.0,63,0.41,,,-99.99,323.000000,,2013-09-16 19:01:00,
2013-09-16 15:11:00,78.0,64.0,-100.00,WSW,251,3.0,13.0,63,0.41,,,-99.99,323.000000,,2013-09-16 19:11:00,
2013-09-16 15:22:00,78.0,64.0,-100.00,WSW,251,3.0,13.0,63,0.41,,,-99.99,323.000000,,2013-09-16 19:22:00,
2013-09-16 15:53:00,77.0,64.0,-100.00,SW,228,2.0,7.0,65,0.00,,,0.41,113.000000,,2013-09-16 19:53:00,
2013-09-16 16:03:00,77.0,64.0,-100.00,SW,228,2.0,7.0,65,0.00,,,0.41,113.000000,,2013-09-16 20:03:00,
2013-09-16 16:11:00,77.0,64.0,-100.00,SW,228,2.0,7.0,65,0.00,,,0.41,113.000000,,2013-09-16 20:11:00,
2013-09-16 16:22:00,77.0,64.0,-100.00,SW,228,2.0,7.0,65,0.00,,,0.41,113.000000,,2013-09-16 20:22:00,
2013-09-16 16:52:00,78.0,63.0,-100.00,West,273,3.0,7.0,61,0.00,,,0.41,208.000000,,2013-09-16 20:52:00,
2013-09-16 17:03:00,78.0,63.0,-100.00,West,273,3.0,7.0,61,0.00,,,0.41,208.000000,,2013-09-16 21:03:00,
2013-09-16 17:11:00,78.0,63.0,-100.00,West,273,3.0,7.0,61,0.00,,,0.41,208.000000,,2013-09-16 21:11:00,
2013-09-16 17:22:00,78.0,63.0,-100.00,West,273,3.0,7.0,61,0.00,,,0.41,208.000000,,2013-09-16 21:22:00,
2013-09-16 17:56:00,81.0,64.0,-100.00,South,173,2.0,6.0,57,0.00,,,0.41,248.000000,,2013-09-16 21:56:00,
2013-09-16 18:04:00,81.0,64.0,-100.00,South,173,2.0,6.0,57,0.00,,,0.41,248.000000,,2013-09-16 22:04:00,
2013-09-16 18:13:00,81.0,64.0,-100.00,South,173,2.0,6.0,57,0.00,,,0.41,248.000000,,2013-09-16 22:13:00,
2013-09-16 18:24:00,81.0,64.0,-100.00,South,173,2.0,6.0,57,0.00,,,0.41,248.000000,,2013-09-16 22:24:00,
2013-09-16 19:22:00,78.0,63.0,-100.00,SSE,167,2.0,6.0,61,0.00,,,0.41,121.000000,,2013-09-16 23:22:00,